AirNav   ProFlight Series 2 Aviation Headset
 
 554 users online  

MA40 Diesel Dogs Seaplane Base
Gardner, Massachusetts, USA

GOING TO GARDNER?


FAA INFORMATION EFFECTIVE 16 JULY 2020

Location

FAA Identifier: MA40
Lat/Long: 42-32-36.3210N 071-58-06.2760W
42-32.605350N 071-58.104600W
42.5434225,-71.9684100
(estimated)
Elevation: 325 ft. / 99 m (estimated)
Variation: 15W (1995)
From city: 1 mile SE of GARDNER, MA
Time zone: UTC -4 (UTC -5 during Standard Time)
Zip code: 01473

Seaplane Base Operations

Seaplane Base use: Private use. Permission required prior to landing
Activation date: 03/2000
Control tower: no
ARTCC: BOSTON CENTER
FSS: BRIDGEPORT FLIGHT SERVICE STATION
Attendance: UNATNDD
Segmented circle: no

Seaplane Base Communications

WX ASOS at FIT (9 nm E): 135.175 (978-343-9121)
WX ASOS at ORE (14 nm W): 135.675 (978-544-6774)
WX ASOS at AFN (16 nm N): 135.875 (603-532-6195)
WX ASOS at ORH (17 nm S): PHONE 508-795-7546

Nearby radio navigation aids

VOR radial/distance  VOR name  Freq  Var
GDMr106/4.0GARDNER VOR/DME110.6014W
EENr151/20.7KEENE VORTAC109.4014W
MHTr249/32.8MANCHESTER VOR/DME114.4015W
PUTr005/35.7PUTNAM VOR/DME117.4014W

Seaplane Base Services

Runway Information

Runway 11W/29W

Dimensions: 4000 x 150 ft. / 1219 x 46 m
Surface: water
RUNWAY 11W  RUNWAY 29W
Traffic pattern: leftleft

Runway 15W/33W

Dimensions: 4000 x 150 ft. / 1219 x 46 m
Surface: water
RUNWAY 15W  RUNWAY 33W
Traffic pattern: leftleft

Runway 9W/27W

Dimensions: 3000 x 150 ft. / 914 x 46 m
Surface: water
RUNWAY 9W  RUNWAY 27W
Traffic pattern: leftleft

Seaplane Base Ownership and Management from official FAA records

Ownership: Privately-owned
Owner: WENDELL LEHMAN
253 LOVEWELL ST
GARDNER, MA 01440
Phone 978-632-9794
Manager: WENDELL LEHMAN
253 LOVEWELL ST
GARDNER, MA 01440
Phone 978-632-9794

Additional Remarks

FOR CD CTC BOSTON ARTCC AT 603-879-6859.

Instrument Procedures

There are no published instrument procedures at MA40.

Some nearby airports with instrument procedures:

KGDM - Gardner Municipal Airport (2 nm W)
KFIT - Fitchburg Municipal Airport (9 nm E)
KORE - Orange Municipal Airport (14 nm W)
KAFN - Jaffrey Airport-Silver Ranch (16 nm N)
KORH - Worcester Regional Airport (17 nm S)
 
Loc | Ops | Rwys | IFR | FBO | Links
Com | Nav | Svcs | Stats | Notes
Area around MA40 (Diesel Dogs Seaplane Base)
 
Road maps at: MapQuest Bing Google
 
Aerial photo
No photo
 
Sectional chart

 
Airport distance calculator
Flying to Diesel Dogs Seaplane Base? Find the distance to fly.

From to MA40

Sunrise and sunset
Times for 06-Aug-2020
 Local
(UTC-4)
 Zulu
(UTC)
Morning civil twilight05:1609:16
Sunrise05:4709:47
Sunset20:0000:00
Evening civil twilight20:3100:31

Current date and time
Zulu (UTC)  06-Aug-2020 11:01:40
Local (UTC-4)  06-Aug-2020 07:01:40
 
METAR
KFIT 
10nm E 
061052Z AUTO 34005KT 10SM CLR 18/12 A3013 RMK AO2 SLP201 T01780122
KORE 
14nm W 
061052Z AUTO 00000KT 10SM CLR 14/13 A3014 RMK AO2 SLP206 T01390128
KAFN 
15nm N 
061052Z AUTO 15003KT 10SM CLR 14/12 A3014 RMK AO2 SLP205 T01440122
KORH 
17nm S 
061054Z 31007KT 10SM CLR 19/11 A3014 RMK AO2 SLP202 T01890111
TAF
KORH 
17nm S 
060531Z 0606/0706 30003KT P6SM FEW250 FM061600 25004KT P6SM SCT250 FM070300 32005KT P6SM SCT040
NOTAMs
Click for the latest NOTAMs
NOTAMs are issued by the DoD/FAA and will open in a separate window not controlled by AirNav.

 

 
 

Would you like to see your business listed on this page?

 If your business provides an interesting product or service to pilots, flight crews, aircraft, or users of the Diesel Dogs Seaplane Base, you should consider listing it here.  To start the listing process, click on the button below
 
Add a business
 

Other Pages about Diesel Dogs Seaplane Base

Update a link
 
Copyright © AirNav, LLC. All rights reserved. Privacy Policy  Contact